createdAt,value
2023-02-27T00:02:24.685Z,-2.50
2023-02-27T00:04:54.596Z,-2.50
2023-02-27T00:07:26.248Z,-2.50
2023-02-27T00:09:54.403Z,-2.50
2023-02-27T00:12:24.127Z,-2.50
2023-02-27T00:14:52.334Z,-2.50
2023-02-27T00:17:20.667Z,-2.50
2023-02-27T00:19:48.944Z,-2.50
2023-02-27T00:22:17.241Z,-2.50
2023-02-27T00:24:45.447Z,-2.60
2023-02-27T00:27:13.679Z,-2.70
2023-02-27T00:29:43.356Z,-2.60
2023-02-27T00:32:11.464Z,-2.60
2023-02-27T00:34:39.615Z,-2.60
2023-02-27T00:37:08.127Z,-2.60
2023-02-27T00:39:36.663Z,-2.60
2023-02-27T00:42:04.880Z,-2.60
2023-02-27T00:44:33.096Z,-2.60
2023-02-27T00:47:02.803Z,-2.60
2023-02-27T00:49:30.936Z,-2.70
2023-02-27T00:51:59.103Z,-2.70
2023-02-27T00:54:27.556Z,-2.70
2023-02-27T00:56:55.707Z,-2.60
2023-02-27T00:59:23.945Z,-2.60
2023-02-27T01:01:52.272Z,-2.60
2023-02-27T01:04:21.877Z,-2.60
2023-02-27T01:06:50.107Z,-2.60
2023-02-27T01:09:20.905Z,-2.60
2023-02-27T01:11:49.157Z,-2.50
2023-02-27T01:14:17.311Z,-2.50
2023-02-27T01:16:45.667Z,-2.50
2023-02-27T01:19:13.806Z,-2.50
2023-02-27T01:21:43.486Z,-2.50
2023-02-27T01:24:12.721Z,-2.40
2023-02-27T01:26:40.852Z,-2.40
2023-02-27T01:29:09.172Z,-2.30
2023-02-27T01:31:40.302Z,-2.20
2023-02-27T01:34:08.678Z,-2.20
2023-02-27T01:36:36.865Z,-2.20
2023-02-27T01:39:06.604Z,-2.10
2023-02-27T01:41:34.984Z,-2.10
2023-02-27T01:44:04.095Z,-2.20
2023-02-27T01:46:33.595Z,-2.10
2023-02-27T01:49:02.550Z,-2.10
2023-02-27T01:51:33.415Z,-2.10
2023-02-27T01:54:01.810Z,-2.00
2023-02-27T01:56:33.408Z,-2.00
2023-02-27T01:59:03.359Z,-1.90
2023-02-27T02:01:32.073Z,-1.90
2023-02-27T02:04:02.128Z,-1.90
2023-02-27T02:06:31.500Z,-1.80
2023-02-27T02:09:00.707Z,-1.80
2023-02-27T02:11:29.553Z,-1.80
2023-02-27T02:14:00.436Z,-1.80
2023-02-27T02:16:38.233Z,-1.60
2023-02-27T02:19:16.559Z,-1.60
2023-02-27T02:22:02.555Z,-1.50
2023-02-27T02:24:45.266Z,-1.50
2023-02-27T02:27:25.551Z,-1.60
2023-02-27T02:30:14.412Z,-1.50
2023-02-27T02:33:00.465Z,-1.50
2023-02-27T02:35:38.006Z,-1.40
2023-02-27T02:38:20.436Z,-1.40
2023-02-27T02:40:54.103Z,-1.40
2023-02-27T02:43:26.940Z,-1.50
2023-02-27T02:45:57.598Z,-1.50
2023-02-27T02:48:28.909Z,-1.40
2023-02-27T02:50:59.993Z,-1.40
2023-02-27T02:53:37.315Z,-1.40
2023-02-27T02:56:07.837Z,-1.30
2023-02-27T02:58:37.953Z,-1.30
2023-02-27T03:01:10.705Z,-1.30
2023-02-27T03:03:41.332Z,-1.30
2023-02-27T03:06:11.838Z,-1.30
2023-02-27T03:08:45.124Z,-1.30
2023-02-27T03:11:13.491Z,-1.20
2023-02-27T03:13:47.793Z,-1.20
2023-02-27T03:16:17.816Z,-1.20
2023-02-27T03:18:50.595Z,-1.20
2023-02-27T03:21:22.824Z,-1.10
2023-02-27T03:23:53.729Z,-1.10
2023-02-27T03:26:25.337Z,-1.10
2023-02-27T03:29:02.162Z,-1.00
2023-02-27T03:31:34.336Z,-1.00
2023-02-27T03:34:08.376Z,-0.90
2023-02-27T03:36:39.490Z,-0.90
2023-02-27T03:39:14.259Z,-0.90
2023-02-27T03:41:48.095Z,-0.80
2023-02-27T03:44:19.365Z,-0.80
2023-02-27T03:46:47.639Z,-0.70
2023-02-27T03:49:15.811Z,-0.80
2023-02-27T03:51:45.698Z,-0.80
2023-02-27T03:54:16.465Z,-0.80
2023-02-27T03:56:47.780Z,-0.80
2023-02-27T03:59:16.113Z,-0.80
2023-02-27T04:01:45.068Z,-0.70
2023-02-27T04:04:15.327Z,-0.70
2023-02-27T04:07:03.628Z,-0.70
2023-02-27T04:09:40.108Z,-0.70
2023-02-27T04:12:17.615Z,-0.60
2023-02-27T04:14:55.916Z,-0.60
2023-02-27T04:17:25.194Z,-0.40
2023-02-27T04:20:01.626Z,-0.50
2023-02-27T04:22:34.065Z,-0.50
2023-02-27T04:25:07.454Z,-0.30
2023-02-27T04:27:39.137Z,-0.30
2023-02-27T04:30:14.569Z,-0.20
2023-02-27T04:32:45.116Z,-0.20
2023-02-27T04:35:15.948Z,-0.10
2023-02-27T04:37:45.890Z,0.00
2023-02-27T04:40:17.652Z,0.00
2023-02-27T04:42:47.720Z,0.10
2023-02-27T04:45:18.083Z,0.00
2023-02-27T04:47:49.117Z,0.00
2023-02-27T04:50:20.669Z,0.10
2023-02-27T04:52:53.348Z,0.20
2023-02-27T04:55:24.506Z,0.10
2023-02-27T04:57:54.889Z,0.10
2023-02-27T05:00:24.820Z,0.10
2023-02-27T05:02:54.438Z,0.10
2023-02-27T05:05:25.357Z,0.10
2023-02-27T05:07:55.864Z,0.10
2023-02-27T05:10:29.328Z,0.10
2023-02-27T05:12:59.924Z,0.00
2023-02-27T05:15:29.949Z,0.00
2023-02-27T05:18:00.829Z,0.00
2023-02-27T05:20:32.586Z,0.00
2023-02-27T05:23:02.244Z,-0.10
2023-02-27T05:25:36.110Z,-0.10
2023-02-27T05:28:06.498Z,-0.30
2023-02-27T05:30:37.427Z,-0.50
2023-02-27T05:33:08.364Z,-0.60
2023-02-27T05:35:39.584Z,-0.60
2023-02-27T05:38:10.839Z,-0.60
2023-02-27T05:40:42.469Z,-0.60
2023-02-27T05:43:13.580Z,-0.60
2023-02-27T05:45:44.134Z,-0.60
2023-02-27T05:48:14.386Z,-0.70
2023-02-27T05:50:43.896Z,-0.80
2023-02-27T05:53:15.878Z,-0.80
2023-02-27T05:55:47.650Z,-0.80
2023-02-27T05:58:18.235Z,-0.70
2023-02-27T06:00:49.520Z,-0.70
2023-02-27T06:03:17.743Z,-0.70
2023-02-27T06:05:46.227Z,-0.50
2023-02-27T06:08:14.560Z,-0.40
2023-02-27T06:10:42.904Z,-0.30
2023-02-27T06:13:12.742Z,-0.30
2023-02-27T06:15:40.895Z,0.00
2023-02-27T06:18:09.171Z,0.10
2023-02-27T06:20:37.348Z,0.20
2023-02-27T06:23:05.546Z,0.30
2023-02-27T06:25:34.174Z,0.40
2023-02-27T06:28:02.503Z,0.40
2023-02-27T06:30:32.358Z,0.60
2023-02-27T06:33:01.143Z,0.50
2023-02-27T06:35:29.732Z,0.60
2023-02-27T06:37:58.467Z,0.60
2023-02-27T06:40:26.840Z,0.70
2023-02-27T06:42:55.033Z,0.80
2023-02-27T06:45:24.387Z,0.90
2023-02-27T06:47:54.156Z,0.90
2023-02-27T06:50:22.374Z,1.00
2023-02-27T06:52:50.517Z,0.80
2023-02-27T06:55:21.036Z,0.90
2023-02-27T06:57:49.558Z,0.90
2023-02-27T07:00:18.439Z,0.90
2023-02-27T07:02:46.941Z,1.00
2023-02-27T07:05:16.567Z,0.90
2023-02-27T07:07:44.911Z,0.90
2023-02-27T07:10:13.791Z,0.90
2023-02-27T07:12:42.390Z,1.00
2023-02-27T07:15:10.967Z,1.10
2023-02-27T07:17:39.298Z,1.20
2023-02-27T07:20:08.811Z,1.40
2023-02-27T07:22:38.596Z,1.40
2023-02-27T07:25:10.448Z,1.60
2023-02-27T07:27:38.630Z,1.70
2023-02-27T07:30:07.447Z,1.60
2023-02-27T07:32:35.635Z,1.80
2023-02-27T07:35:04.654Z,1.70
2023-02-27T07:37:32.951Z,1.70
2023-02-27T07:40:03.546Z,1.80
2023-02-27T07:42:32.366Z,1.70
2023-02-27T07:45:00.602Z,1.80
2023-02-27T07:47:30.437Z,1.90
2023-02-27T07:49:58.704Z,1.90
2023-02-27T07:52:26.894Z,1.90
2023-02-27T07:54:55.574Z,2.00
2023-02-27T07:57:25.538Z,2.00
2023-02-27T07:59:53.803Z,2.10
2023-02-27T08:02:22.168Z,2.00
2023-02-27T08:04:50.603Z,2.00
2023-02-27T08:07:18.789Z,2.10
2023-02-27T08:09:47.108Z,2.20
2023-02-27T08:12:15.245Z,2.20
2023-02-27T08:14:47.383Z,2.40
2023-02-27T08:17:15.531Z,2.40
2023-02-27T08:19:43.656Z,2.70
2023-02-27T08:22:14.716Z,2.90
2023-02-27T08:24:43.007Z,3.00
2023-02-27T08:27:11.244Z,3.20
2023-02-27T08:29:39.403Z,3.10
2023-02-27T08:32:09.015Z,3.10
2023-02-27T08:34:37.215Z,3.30
2023-02-27T08:37:05.465Z,3.20
2023-02-27T08:39:33.642Z,3.40
2023-02-27T08:42:01.798Z,3.40
2023-02-27T08:44:30.001Z,3.80
2023-02-27T08:46:58.255Z,3.70
2023-02-27T08:49:28.180Z,4.00
2023-02-27T08:51:56.307Z,4.30
2023-02-27T08:54:24.581Z,4.10
2023-02-27T08:56:52.736Z,4.00
2023-02-27T08:59:21.090Z,4.10
2023-02-27T09:01:49.269Z,4.10
2023-02-27T09:04:17.519Z,4.20
2023-02-27T09:06:47.054Z,4.40
2023-02-27T09:09:15.324Z,4.30
2023-02-27T09:11:43.461Z,4.40
2023-02-27T09:14:11.866Z,4.50
2023-02-27T09:16:40.445Z,4.60
2023-02-27T09:19:08.696Z,4.70
2023-02-27T09:21:37.538Z,4.50
2023-02-27T09:24:19.120Z,4.40
2023-02-27T09:26:49.650Z,4.70
2023-02-27T09:29:18.212Z,4.90
2023-02-27T09:31:46.472Z,4.70
2023-02-27T09:34:14.824Z,4.80
2023-02-27T09:36:43.042Z,5.20
2023-02-27T09:39:12.734Z,4.60
2023-02-27T09:41:49.450Z,4.70
2023-02-27T09:44:33.456Z,4.70
2023-02-27T09:47:11.919Z,5.00
2023-02-27T09:49:47.405Z,4.90
2023-02-27T09:52:16.143Z,4.80
2023-02-27T09:54:45.882Z,5.00
2023-02-27T09:57:16.798Z,5.20
2023-02-27T09:59:46.984Z,5.20
2023-02-27T10:02:21.603Z,5.00
2023-02-27T10:04:54.222Z,5.10
2023-02-27T10:07:26.410Z,5.20
2023-02-27T10:10:01.359Z,5.10
2023-02-27T10:12:44.292Z,5.40
2023-02-27T10:15:16.807Z,5.30
2023-02-27T10:17:48.543Z,5.60
2023-02-27T10:20:18.911Z,5.40
2023-02-27T10:22:50.559Z,5.40
2023-02-27T10:25:31.346Z,5.70
2023-02-27T10:28:02.092Z,5.60
2023-02-27T10:30:32.954Z,5.50
2023-02-27T10:33:07.642Z,5.50
2023-02-27T10:35:36.954Z,5.40
2023-02-27T10:38:07.160Z,5.60
2023-02-27T10:40:37.767Z,5.70
2023-02-27T10:43:07.419Z,5.60
2023-02-27T10:45:37.482Z,5.70
2023-02-27T10:48:07.525Z,5.80
2023-02-27T10:50:37.491Z,5.60
2023-02-27T10:53:07.893Z,5.70
2023-02-27T10:55:39.417Z,5.70
2023-02-27T10:58:08.387Z,5.80
2023-02-27T11:00:42.483Z,5.90
2023-02-27T11:03:18.239Z,5.80
2023-02-27T11:05:53.490Z,5.80
2023-02-27T11:08:22.539Z,6.00
2023-02-27T11:10:56.990Z,6.10
2023-02-27T11:13:26.324Z,6.00
2023-02-27T11:16:06.039Z,5.80
2023-02-27T11:18:34.784Z,6.00
2023-02-27T11:21:18.185Z,6.30
2023-02-27T11:23:54.152Z,6.10
2023-02-27T11:26:25.367Z,6.10
2023-02-27T11:29:05.875Z,6.30
2023-02-27T11:31:34.556Z,6.30
2023-02-27T11:34:05.027Z,6.20
2023-02-27T11:36:44.247Z,6.20
2023-02-27T11:39:23.697Z,6.50
2023-02-27T11:41:53.619Z,6.60
2023-02-27T11:44:50.305Z,6.40
2023-02-27T11:47:14.561Z,6.60
2023-02-27T11:49:50.955Z,6.40
2023-02-27T11:52:22.214Z,6.30
2023-02-27T11:54:52.417Z,6.30
2023-02-27T11:57:28.667Z,6.20
2023-02-27T11:59:59.348Z,6.20
2023-02-27T12:02:31.305Z,6.40
2023-02-27T12:05:03.582Z,6.40
2023-02-27T12:07:35.417Z,6.40
2023-02-27T12:10:05.837Z,6.40
2023-02-27T12:12:38.174Z,6.50
2023-02-27T12:15:12.195Z,6.70
2023-02-27T12:17:41.773Z,6.60
2023-02-27T12:20:19.882Z,6.60
2023-02-27T12:22:48.942Z,6.70
2023-02-27T12:25:27.924Z,6.60
2023-02-27T12:28:02.044Z,6.70
2023-02-27T12:30:33.449Z,6.50
2023-02-27T12:33:03.790Z,6.50
2023-02-27T12:35:33.194Z,6.60
2023-02-27T12:38:02.207Z,6.60
2023-02-27T12:40:31.483Z,6.50
2023-02-27T12:43:08.533Z,6.70
2023-02-27T12:45:54.652Z,6.60
2023-02-27T12:48:29.506Z,6.90
2023-02-27T12:51:01.825Z,6.90
2023-02-27T12:53:44.231Z,6.80
2023-02-27T12:56:14.818Z,6.70
2023-02-27T12:58:49.415Z,6.90
2023-02-27T13:01:26.299Z,6.90
2023-02-27T13:03:58.044Z,6.70
2023-02-27T13:06:29.144Z,6.90
2023-02-27T13:09:03.725Z,6.90
2023-02-27T13:11:39.197Z,6.80
2023-02-27T13:14:10.534Z,6.80
2023-02-27T13:16:42.440Z,6.80
2023-02-27T13:19:14.604Z,6.90
2023-02-27T13:21:47.233Z,6.90
2023-02-27T13:24:26.137Z,6.80
2023-02-27T13:26:57.042Z,6.80
2023-02-27T13:29:28.251Z,7.10
2023-02-27T13:32:00.461Z,7.20
2023-02-27T13:34:32.827Z,7.00
2023-02-27T13:37:03.800Z,6.90
2023-02-27T13:39:43.894Z,6.80
2023-02-27T13:42:30.655Z,6.90
2023-02-27T13:45:01.610Z,7.10
2023-02-27T13:48:34.419Z,6.70
2023-02-27T13:51:02.908Z,6.70
2023-02-27T13:53:31.385Z,6.70
2023-02-27T13:56:17.314Z,6.70
2023-02-27T13:58:45.858Z,6.70
2023-02-27T14:01:17.810Z,6.80
2023-02-27T14:03:57.097Z,6.80
2023-02-27T14:06:26.487Z,6.80
2023-02-27T14:09:12.461Z,7.00
2023-02-27T14:11:52.603Z,6.90
2023-02-27T14:14:40.647Z,6.80
2023-02-27T14:17:11.361Z,6.70
2023-02-27T14:19:51.954Z,6.80
2023-02-27T14:22:31.620Z,6.80
2023-02-27T14:25:05.331Z,6.60
2023-02-27T14:27:37.945Z,6.70
2023-02-27T14:30:09.446Z,6.50
2023-02-27T14:32:38.423Z,6.40
2023-02-27T14:35:18.620Z,6.30
2023-02-27T14:37:47.266Z,6.30
2023-02-27T14:40:28.125Z,6.40
2023-02-27T14:43:03.871Z,6.40
2023-02-27T14:45:32.275Z,6.50
2023-02-27T14:48:00.556Z,6.50
2023-02-27T14:50:36.684Z,6.50
2023-02-27T14:53:05.524Z,6.40
2023-02-27T14:55:34.440Z,6.30
2023-02-27T14:58:09.710Z,6.20
2023-02-27T15:00:42.039Z,6.10
2023-02-27T15:03:20.545Z,6.00
2023-02-27T15:05:51.062Z,5.90
2023-02-27T15:08:20.170Z,6.00
2023-02-27T15:10:48.585Z,5.80
2023-02-27T15:13:22.910Z,5.70
2023-02-27T15:15:52.454Z,5.80
2023-02-27T15:18:24.354Z,5.70
2023-02-27T15:21:02.177Z,5.60
2023-02-27T15:23:30.393Z,5.40
2023-02-27T15:25:59.244Z,5.20
2023-02-27T15:28:28.810Z,5.20
2023-02-27T15:30:58.110Z,5.10
2023-02-27T15:33:29.619Z,5.00
2023-02-27T15:35:59.674Z,4.80
2023-02-27T15:38:28.846Z,4.60
2023-02-27T15:40:57.280Z,4.50
2023-02-27T15:43:25.926Z,4.50
2023-02-27T15:45:54.287Z,4.40
2023-02-27T15:48:22.989Z,4.10
2023-02-27T15:50:55.766Z,4.00
2023-02-27T15:53:26.062Z,3.90
2023-02-27T15:55:55.268Z,3.90
2023-02-27T15:58:25.894Z,3.90
2023-02-27T16:01:00.882Z,3.80
2023-02-27T16:03:33.135Z,3.80
2023-02-27T16:06:01.640Z,3.60
2023-02-27T16:08:31.899Z,3.50
2023-02-27T16:11:00.144Z,3.40
2023-02-27T16:13:33.580Z,3.40
2023-02-27T16:16:02.838Z,3.30
2023-02-27T16:18:34.694Z,3.10
2023-02-27T16:21:12.826Z,3.00
2023-02-27T16:23:42.937Z,3.00
2023-02-27T16:26:23.084Z,2.90
2023-02-27T16:28:52.859Z,2.80
2023-02-27T16:31:24.268Z,2.80
2023-02-27T16:33:53.009Z,2.60
2023-02-27T16:36:21.886Z,2.60
2023-02-27T16:38:51.957Z,2.60
2023-02-27T16:41:21.627Z,2.50
2023-02-27T16:43:50.488Z,2.50
2023-02-27T16:46:21.287Z,2.40
2023-02-27T16:48:50.898Z,2.30
2023-02-27T16:51:19.997Z,2.40
2023-02-27T16:53:48.456Z,2.30
2023-02-27T16:56:23.743Z,2.20
2023-02-27T16:58:57.444Z,2.00
2023-02-27T17:01:25.650Z,2.00
2023-02-27T17:03:56.646Z,2.00
2023-02-27T17:06:24.991Z,2.00
2023-02-27T17:08:53.178Z,1.90
2023-02-27T17:11:22.804Z,1.80
2023-02-27T17:13:52.008Z,1.90
2023-02-27T17:16:20.236Z,1.80
2023-02-27T17:18:48.434Z,1.70
2023-02-27T17:21:16.737Z,1.70
2023-02-27T17:23:44.859Z,1.70
2023-02-27T17:26:13.159Z,1.60
2023-02-27T17:28:43.059Z,1.40
2023-02-27T17:31:11.909Z,1.60
2023-02-27T17:33:40.279Z,1.70
2023-02-27T17:36:09.503Z,1.70
2023-02-27T17:38:37.956Z,1.90
2023-02-27T17:41:07.973Z,2.10
2023-02-27T17:43:38.061Z,2.20
2023-02-27T17:46:10.908Z,2.00
2023-02-27T17:48:39.436Z,2.00
2023-02-27T17:51:08.490Z,2.00
2023-02-27T17:53:37.407Z,1.90
2023-02-27T17:56:05.824Z,1.80
2023-02-27T17:58:34.260Z,1.90
2023-02-27T18:01:05.060Z,2.00
2023-02-27T18:03:37.367Z,1.90
2023-02-27T18:06:05.869Z,1.80
2023-02-27T18:08:35.607Z,2.00
2023-02-27T18:11:03.824Z,1.90
2023-02-27T18:13:32.429Z,2.00
2023-02-27T18:16:02.821Z,2.00
2023-02-27T18:18:31.167Z,2.00
2023-02-27T18:21:03.858Z,1.90
2023-02-27T18:23:32.295Z,2.00
2023-02-27T18:26:00.915Z,2.20
2023-02-27T18:28:29.824Z,2.30
2023-02-27T18:30:58.230Z,2.20
2023-02-27T18:33:29.052Z,2.30
2023-02-27T18:35:57.299Z,2.30
2023-02-27T18:38:26.960Z,2.40
2023-02-27T18:40:55.301Z,2.50
2023-02-27T18:43:23.439Z,2.50
2023-02-27T18:45:51.760Z,2.60
2023-02-27T18:48:22.724Z,2.70
2023-02-27T18:50:50.876Z,2.80
2023-02-27T18:53:19.374Z,2.90
2023-02-27T18:55:49.294Z,2.70
2023-02-27T18:58:17.633Z,2.80
2023-02-27T19:00:45.901Z,2.60
2023-02-27T19:03:14.260Z,2.70
2023-02-27T19:05:42.795Z,2.80
2023-02-27T19:08:10.934Z,2.70
2023-02-27T19:10:42.147Z,2.70
2023-02-27T19:13:12.112Z,2.60
2023-02-27T19:15:40.677Z,2.60
2023-02-27T19:18:08.819Z,2.60
2023-02-27T19:20:37.404Z,2.60
2023-02-27T19:23:05.769Z,2.60
2023-02-27T19:25:33.911Z,2.80
2023-02-27T19:28:02.636Z,2.60
2023-02-27T19:30:32.280Z,2.60
2023-02-27T19:33:00.503Z,2.70
2023-02-27T19:35:28.881Z,2.60
2023-02-27T19:37:58.401Z,2.60
2023-02-27T19:40:26.725Z,2.60
2023-02-27T19:42:55.103Z,2.60
2023-02-27T19:45:23.291Z,2.70
2023-02-27T19:47:53.764Z,2.80
2023-02-27T19:50:21.986Z,2.80
2023-02-27T19:52:50.283Z,2.70
2023-02-27T19:55:21.092Z,2.60
2023-02-27T19:57:49.346Z,2.40
2023-02-27T20:00:18.304Z,2.50
2023-02-27T20:02:46.762Z,2.60
2023-02-27T20:05:16.528Z,2.50
2023-02-27T20:07:46.836Z,2.60
2023-02-27T20:10:18.427Z,2.60
2023-02-27T20:12:49.337Z,2.50
2023-02-27T20:15:19.952Z,2.40
2023-02-27T20:17:48.291Z,2.50
2023-02-27T20:20:18.081Z,2.60
2023-02-27T20:22:46.279Z,2.50
2023-02-27T20:25:15.073Z,2.60
2023-02-27T20:27:43.218Z,2.50
2023-02-27T20:30:12.574Z,2.40
2023-02-27T20:32:40.789Z,2.40
2023-02-27T20:35:10.134Z,2.20
2023-02-27T20:37:40.098Z,2.30
2023-02-27T20:40:08.989Z,2.50
2023-02-27T20:42:37.579Z,2.40
2023-02-27T20:45:08.231Z,2.30
2023-02-27T20:47:36.409Z,2.30
2023-02-27T20:50:04.769Z,2.20
2023-02-27T20:52:32.964Z,2.20
2023-02-27T20:55:02.602Z,2.10
2023-02-27T20:57:30.820Z,2.10
2023-02-27T20:59:58.932Z,2.00
2023-02-27T21:02:27.390Z,2.00
2023-02-27T21:04:57.729Z,2.10
2023-02-27T21:07:26.176Z,2.20
2023-02-27T21:09:54.320Z,2.20
2023-02-27T21:12:24.029Z,2.20
2023-02-27T21:14:52.318Z,2.20
2023-02-27T21:17:20.405Z,2.20
2023-02-27T21:19:48.594Z,2.10
2023-02-27T21:22:17.244Z,2.20
2023-02-27T21:24:50.139Z,2.00
2023-02-27T21:27:22.606Z,2.20
2023-02-27T21:29:52.238Z,2.30
2023-02-27T21:32:20.536Z,2.30
2023-02-27T21:34:48.844Z,2.40
2023-02-27T21:37:17.016Z,2.20
2023-02-27T21:39:50.538Z,2.30
2023-02-27T21:42:18.682Z,2.30
2023-02-27T21:44:47.165Z,2.50
2023-02-27T21:47:16.942Z,2.50
2023-02-27T21:49:45.100Z,2.50
2023-02-27T21:52:13.281Z,2.60
2023-02-27T21:54:41.664Z,2.60
2023-02-27T21:57:10.630Z,2.60
2023-02-27T21:59:39.066Z,2.70
2023-02-27T22:02:07.204Z,2.90
2023-02-27T22:04:36.810Z,2.80
2023-02-27T22:07:09.322Z,2.80
2023-02-27T22:09:38.692Z,2.70
2023-02-27T22:12:07.172Z,2.70
2023-02-27T22:14:35.349Z,2.80
2023-02-27T22:17:03.454Z,2.60
2023-02-27T22:19:31.604Z,2.60
2023-02-27T22:22:01.180Z,2.60
2023-02-27T22:24:31.795Z,2.70
2023-02-27T22:26:59.963Z,2.70
2023-02-27T22:29:28.135Z,2.50
2023-02-27T22:31:56.628Z,2.50
2023-02-27T22:34:24.828Z,2.40
2023-02-27T22:36:53.315Z,2.40
2023-02-27T22:39:22.902Z,2.30
2023-02-27T22:41:51.280Z,2.30
2023-02-27T22:44:19.506Z,2.30
2023-02-27T22:46:48.866Z,2.40
2023-02-27T22:49:18.213Z,2.30
2023-02-27T22:51:47.532Z,2.20
2023-02-27T22:54:17.136Z,2.10
2023-02-27T22:56:46.853Z,2.20
2023-02-27T22:59:16.772Z,2.30
2023-02-27T23:01:44.917Z,2.50
2023-02-27T23:04:13.292Z,2.50
2023-02-27T23:06:43.051Z,2.30
2023-02-27T23:09:13.192Z,2.20
2023-02-27T23:11:42.201Z,2.30
2023-02-27T23:14:13.599Z,2.20
2023-02-27T23:16:45.828Z,2.20
2023-02-27T23:19:14.594Z,2.20
2023-02-27T23:21:43.080Z,2.20
2023-02-27T23:24:12.224Z,2.30
2023-02-27T23:26:42.598Z,2.30
2023-02-27T23:29:12.554Z,2.30
2023-02-27T23:31:40.733Z,2.20
2023-02-27T23:34:09.283Z,2.20
2023-02-27T23:36:38.409Z,2.60
2023-02-27T23:39:07.231Z,2.60
2023-02-27T23:41:36.007Z,2.50
2023-02-27T23:44:21.751Z,2.40
2023-02-27T23:46:51.706Z,2.50
2023-02-27T23:49:19.900Z,2.60
2023-02-27T23:51:52.329Z,2.60
2023-02-27T23:54:20.428Z,2.60
2023-02-27T23:56:49.011Z,2.70
2023-02-27T23:59:17.347Z,2.50
